createdAt,value
2022-08-09T00:00:21.089Z,64.00
2022-08-09T00:02:49.422Z,64.00
2022-08-09T00:06:18.224Z,64.20
2022-08-09T00:08:09.656Z,64.10
2022-08-09T00:10:38.318Z,64.20
2022-08-09T00:13:17.503Z,64.10
2022-08-09T00:16:00.167Z,64.10
2022-08-09T00:18:35.846Z,64.30
2022-08-09T00:21:08.735Z,64.30
2022-08-09T00:23:55.578Z,64.30
2022-08-09T00:26:32.412Z,64.50
2022-08-09T00:29:12.536Z,64.50
2022-08-09T00:31:59.470Z,64.70
2022-08-09T00:34:28.093Z,64.60
2022-08-09T00:37:00.540Z,64.60
2022-08-09T00:40:13.802Z,64.70
2022-08-09T00:44:16.718Z,64.60
2022-08-09T00:45:16.015Z,64.80
2022-08-09T00:47:44.147Z,64.80
2022-08-09T00:50:14.442Z,64.60
2022-08-09T00:52:42.155Z,64.90
2022-08-09T00:55:10.260Z,65.00
2022-08-09T00:57:43.943Z,65.20
2022-08-09T01:00:21.803Z,65.10
2022-08-09T01:02:57.996Z,65.20
2022-08-09T01:05:53.592Z,65.30
2022-08-09T01:08:58.477Z,65.50
2022-08-09T01:11:56.172Z,65.20
2022-08-09T01:14:55.630Z,65.80
2022-08-09T01:17:25.944Z,65.50
2022-08-09T01:20:03.385Z,65.40
2022-08-09T01:24:01.012Z,65.50
2022-08-09T01:26:11.853Z,65.80
2022-08-09T01:28:47.703Z,65.60
2022-08-09T01:32:28.103Z,65.70
2022-08-09T01:34:10.242Z,65.90
2022-08-09T01:36:40.959Z,65.70
2022-08-09T01:39:08.747Z,66.00
2022-08-09T01:41:53.375Z,65.90
2022-08-09T01:44:23.809Z,66.00
2022-08-09T01:46:53.024Z,66.10
2022-08-09T01:49:24.095Z,67.00
2022-08-09T01:51:58.918Z,66.20
2022-08-09T01:54:44.427Z,66.30
2022-08-09T01:57:31.770Z,66.50
2022-08-09T02:00:34.974Z,66.50
2022-08-09T02:02:59.319Z,66.30
2022-08-09T02:05:38.081Z,66.40
2022-08-09T02:08:39.147Z,66.50
2022-08-09T02:11:17.000Z,66.60
2022-08-09T02:13:55.306Z,66.60
2022-08-09T02:16:59.873Z,66.60
2022-08-09T02:19:38.786Z,66.70
2022-08-09T02:22:35.067Z,66.80
2022-08-09T02:25:10.125Z,66.90
2022-08-09T02:28:00.050Z,66.70
2022-08-09T02:30:37.364Z,66.90
2022-08-09T02:33:08.046Z,66.90
2022-08-09T02:36:01.305Z,67.10
2022-08-09T02:38:36.362Z,67.10
2022-08-09T02:41:17.290Z,67.30
2022-08-09T02:43:54.889Z,67.40
2022-08-09T02:46:29.214Z,67.20
2022-08-09T02:49:00.435Z,67.40
2022-08-09T02:51:37.119Z,67.40
2022-08-09T02:54:13.735Z,67.50
2022-08-09T02:56:51.008Z,67.40
2022-08-09T02:59:26.195Z,67.70
2022-08-09T03:02:09.727Z,67.70
2022-08-09T03:04:45.113Z,67.80
2022-08-09T03:07:14.658Z,67.80
2022-08-09T03:09:56.347Z,67.80
2022-08-09T03:12:27.523Z,67.80
2022-08-09T03:14:57.347Z,67.90
2022-08-09T03:17:26.586Z,68.00
2022-08-09T03:20:00.358Z,68.00
2022-08-09T03:22:33.616Z,68.10
2022-08-09T03:25:26.000Z,68.10
2022-08-09T03:27:59.296Z,68.20
2022-08-09T03:30:29.980Z,68.30
2022-08-09T03:33:12.894Z,68.90
2022-08-09T03:36:13.757Z,68.30
2022-08-09T03:38:32.387Z,68.40
2022-08-09T03:40:59.514Z,68.50
2022-08-09T03:43:32.147Z,68.70
2022-08-09T03:46:05.159Z,68.70
2022-08-09T03:48:52.954Z,68.70
2022-08-09T03:51:56.250Z,68.80
2022-08-09T03:54:14.370Z,68.90
2022-08-09T03:56:42.299Z,68.80
2022-08-09T03:59:17.280Z,68.90
2022-08-09T04:01:56.754Z,68.80
2022-08-09T04:04:36.274Z,69.00
2022-08-09T04:07:06.268Z,69.00
2022-08-09T04:09:41.742Z,69.90
2022-08-09T04:12:30.822Z,69.10
2022-08-09T04:15:11.492Z,69.20
2022-08-09T04:17:47.452Z,69.30
2022-08-09T04:20:16.211Z,69.30
2022-08-09T04:22:44.552Z,69.40
2022-08-09T04:25:12.873Z,69.40
2022-08-09T04:27:49.213Z,69.40
2022-08-09T04:30:20.975Z,69.60
2022-08-09T04:32:51.669Z,69.60
2022-08-09T04:35:21.588Z,69.60
2022-08-09T04:37:49.776Z,69.70
2022-08-09T04:40:19.228Z,69.70
2022-08-09T04:42:56.727Z,69.60
2022-08-09T04:45:24.182Z,69.80
2022-08-09T04:48:00.994Z,69.70
2022-08-09T04:50:31.960Z,69.70
2022-08-09T04:53:02.609Z,69.80
2022-08-09T04:55:38.197Z,70.00
2022-08-09T04:58:09.335Z,70.00
2022-08-09T05:00:37.397Z,70.10
2022-08-09T05:03:30.308Z,70.10
2022-08-09T05:06:06.508Z,70.10
2022-08-09T05:08:35.669Z,70.20
2022-08-09T05:11:03.723Z,70.30
2022-08-09T05:13:34.226Z,70.20
2022-08-09T05:16:10.111Z,70.40
2022-08-09T05:18:58.493Z,70.40
2022-08-09T05:21:29.949Z,70.40
2022-08-09T05:24:03.667Z,70.50
2022-08-09T05:26:36.676Z,70.50
2022-08-09T05:29:21.760Z,70.50
2022-08-09T05:31:56.961Z,70.60
2022-08-09T05:34:32.728Z,70.70
2022-08-09T05:37:06.410Z,70.80
2022-08-09T05:39:43.602Z,71.00
2022-08-09T05:42:17.887Z,70.80
2022-08-09T05:44:53.028Z,70.90
2022-08-09T05:47:25.297Z,71.10
2022-08-09T05:50:34.913Z,71.20
2022-08-09T05:52:44.299Z,71.10
2022-08-09T05:55:18.165Z,71.10
2022-08-09T05:57:55.572Z,71.10
2022-08-09T06:00:26.715Z,71.20
2022-08-09T06:02:57.851Z,72.10
2022-08-09T06:05:31.137Z,71.20
2022-08-09T06:08:13.818Z,71.30
2022-08-09T06:10:47.124Z,71.30
2022-08-09T06:13:20.351Z,71.40
2022-08-09T06:15:51.374Z,71.40
2022-08-09T06:18:25.326Z,71.50
2022-08-09T06:20:57.635Z,71.60
2022-08-09T06:23:57.810Z,71.60
2022-08-09T06:26:21.233Z,71.70
2022-08-09T06:29:00.215Z,71.70
2022-08-09T06:31:30.626Z,71.70
2022-08-09T06:33:58.696Z,71.70
2022-08-09T06:36:27.324Z,71.80
2022-08-09T06:38:57.663Z,71.70
2022-08-09T06:41:40.572Z,71.80
2022-08-09T06:44:14.419Z,71.80
2022-08-09T06:46:48.266Z,71.70
2022-08-09T06:49:29.160Z,73.40
2022-08-09T06:52:05.468Z,74.90
2022-08-09T06:54:34.831Z,75.70
2022-08-09T06:57:01.987Z,78.30
2022-08-09T07:00:52.508Z,77.20
2022-08-09T07:02:16.726Z,78.00
2022-08-09T07:04:43.909Z,78.50
2022-08-09T07:07:12.222Z,78.80
2022-08-09T07:10:10.499Z,79.10
2022-08-09T07:12:46.432Z,79.50
2022-08-09T07:16:35.028Z,79.60
2022-08-09T07:18:14.181Z,80.10
2022-08-09T07:20:43.711Z,80.70
2022-08-09T07:23:18.712Z,80.60
2022-08-09T07:25:52.537Z,81.40
2022-08-09T07:28:31.308Z,80.90
2022-08-09T07:31:04.805Z,81.10
2022-08-09T07:33:52.127Z,81.60
2022-08-09T07:36:20.167Z,82.00
2022-08-09T07:39:00.372Z,81.80
2022-08-09T07:41:32.855Z,81.90
2022-08-09T07:44:05.745Z,82.00
2022-08-09T07:46:33.977Z,81.80
2022-08-09T07:49:04.158Z,81.90
2022-08-09T07:52:05.684Z,82.10
2022-08-09T07:54:28.015Z,82.00
2022-08-09T07:56:58.523Z,82.10
2022-08-09T07:59:45.947Z,82.00
2022-08-09T08:02:19.536Z,82.00
2022-08-09T08:04:49.016Z,82.00
2022-08-09T08:08:44.351Z,82.40
2022-08-09T08:10:10.994Z,82.60
2022-08-09T08:12:43.587Z,82.70
2022-08-09T08:15:16.626Z,82.70
2022-08-09T08:17:54.673Z,82.40
2022-08-09T08:20:30.447Z,82.30
2022-08-09T08:23:06.323Z,82.10
2022-08-09T08:25:44.602Z,81.90
2022-08-09T08:28:15.530Z,82.00
2022-08-09T08:30:45.691Z,81.80
2022-08-09T08:33:23.046Z,81.50
2022-08-09T08:35:59.327Z,81.20
2022-08-09T08:38:29.671Z,81.00
2022-08-09T08:40:58.362Z,80.70
2022-08-09T08:43:26.589Z,80.30
2022-08-09T08:46:03.913Z,80.00
2022-08-09T08:48:52.018Z,79.80
2022-08-09T08:51:23.188Z,79.60
2022-08-09T08:54:04.438Z,79.00
2022-08-09T08:56:41.618Z,78.90
2022-08-09T08:59:19.939Z,78.40
2022-08-09T09:01:53.306Z,77.80
2022-08-09T09:04:29.824Z,77.60
2022-08-09T09:07:07.935Z,77.70
2022-08-09T09:09:58.704Z,78.40
2022-08-09T09:12:29.147Z,77.80
2022-08-09T09:14:59.008Z,76.20
2022-08-09T09:17:46.410Z,76.80
2022-08-09T09:20:15.740Z,76.70
2022-08-09T09:23:01.874Z,77.20
2022-08-09T09:26:01.189Z,76.20
2022-08-09T09:29:02.859Z,72.20
2022-08-09T09:32:06.062Z,71.60
2022-08-09T09:34:14.626Z,71.90
2022-08-09T09:36:53.080Z,72.60
2022-08-09T09:39:42.744Z,69.10
2022-08-09T09:42:25.884Z,71.00
2022-08-09T09:45:03.244Z,71.00
2022-08-09T09:47:32.947Z,71.90
2022-08-09T09:50:15.928Z,70.70
2022-08-09T09:52:54.465Z,69.00
2022-08-09T09:55:31.904Z,70.80
2022-08-09T09:58:16.385Z,70.00
2022-08-09T10:00:54.147Z,69.20
2022-08-09T10:03:57.314Z,65.80
2022-08-09T10:06:38.711Z,67.00
2022-08-09T10:09:22.682Z,68.40
2022-08-09T10:12:14.423Z,65.90
2022-08-09T10:14:49.168Z,66.60
2022-08-09T10:17:50.735Z,67.10
2022-08-09T10:20:27.805Z,66.80
2022-08-09T10:23:20.400Z,66.90
2022-08-09T10:26:07.029Z,66.40
2022-08-09T10:28:43.315Z,65.00
2022-08-09T10:34:08.870Z,65.50
2022-08-09T10:36:39.875Z,64.60
2022-08-09T10:39:15.905Z,64.70
2022-08-09T10:41:47.726Z,64.30
2022-08-09T10:44:22.230Z,64.10
2022-08-09T10:48:12.013Z,64.50
2022-08-09T10:50:06.394Z,65.10
2022-08-09T10:52:43.021Z,66.40
2022-08-09T10:55:35.776Z,65.00
2022-08-09T10:58:33.802Z,64.70
2022-08-09T11:03:02.530Z,66.00
2022-08-09T11:04:19.373Z,64.30
2022-08-09T11:07:01.599Z,66.00
2022-08-09T11:09:47.431Z,64.10
2022-08-09T11:12:29.408Z,64.20
2022-08-09T11:15:23.906Z,63.50
2022-08-09T11:18:03.114Z,63.90
2022-08-09T11:20:49.675Z,63.20
2022-08-09T11:23:23.996Z,63.60
2022-08-09T11:25:54.684Z,60.80
2022-08-09T11:28:33.759Z,60.80
2022-08-09T11:31:50.258Z,61.90
2022-08-09T11:34:29.682Z,61.60
2022-08-09T11:37:00.272Z,60.90
2022-08-09T11:39:38.067Z,59.50
2022-08-09T11:42:14.868Z,59.30
2022-08-09T11:44:46.546Z,59.00
2022-08-09T11:47:15.443Z,59.30
2022-08-09T11:50:56.228Z,58.50
2022-08-09T11:53:20.713Z,59.70
2022-08-09T11:55:53.505Z,57.60
2022-08-09T11:58:32.914Z,57.80
2022-08-09T12:01:37.554Z,57.20
2022-08-09T12:04:04.820Z,56.60
2022-08-09T12:06:35.261Z,56.30
2022-08-09T12:09:19.164Z,54.50
2022-08-09T12:12:05.275Z,52.50
2022-08-09T12:14:41.099Z,51.90
2022-08-09T12:17:27.584Z,52.50
2022-08-09T12:19:59.602Z,52.10
2022-08-09T12:22:29.183Z,51.50
2022-08-09T12:25:16.198Z,50.30
2022-08-09T12:29:11.257Z,49.10
2022-08-09T12:30:36.947Z,50.10
2022-08-09T12:33:07.375Z,49.40
2022-08-09T12:35:40.685Z,49.00
2022-08-09T12:38:29.794Z,48.30
2022-08-09T12:41:04.698Z,46.40
2022-08-09T12:44:05.879Z,47.00
2022-08-09T12:46:23.708Z,46.80
2022-08-09T12:48:55.797Z,46.30
2022-08-09T12:51:52.749Z,45.50
2022-08-09T12:54:11.076Z,45.40
2022-08-09T12:56:51.329Z,45.60
2022-08-09T12:59:23.734Z,44.70
2022-08-09T13:01:59.784Z,45.10
2022-08-09T13:04:35.789Z,43.60
2022-08-09T13:07:16.522Z,44.10
2022-08-09T13:10:00.977Z,42.50
2022-08-09T13:13:10.023Z,43.50
2022-08-09T13:16:03.870Z,42.50
2022-08-09T13:18:47.030Z,41.10
2022-08-09T13:23:00.687Z,41.40
2022-08-09T13:24:44.440Z,41.50
2022-08-09T13:27:04.712Z,42.50
2022-08-09T13:30:03.247Z,42.10
2022-08-09T13:32:27.503Z,41.60
2022-08-09T13:35:05.765Z,41.60
2022-08-09T13:37:52.269Z,41.20
2022-08-09T13:41:54.257Z,41.00
2022-08-09T13:43:09.836Z,40.90
2022-08-09T13:46:44.753Z,40.70
2022-08-09T13:48:24.668Z,40.60
2022-08-09T13:50:51.929Z,40.60
2022-08-09T13:53:19.174Z,40.60
2022-08-09T13:55:47.886Z,40.70
2022-08-09T13:58:15.101Z,40.80
2022-08-09T14:00:48.190Z,40.80
2022-08-09T14:04:03.250Z,41.00
2022-08-09T14:06:19.291Z,40.90
2022-08-09T14:08:52.999Z,41.20
2022-08-09T14:11:20.423Z,42.00
2022-08-09T14:14:22.923Z,42.00
2022-08-09T14:16:34.727Z,41.90
2022-08-09T14:19:01.849Z,42.00
2022-08-09T14:21:29.304Z,42.30
2022-08-09T14:24:00.973Z,42.20
2022-08-09T14:26:32.571Z,42.80
2022-08-09T14:29:08.211Z,43.10
2022-08-09T14:31:53.386Z,43.00
2022-08-09T14:34:27.539Z,43.50
2022-08-09T14:37:06.842Z,43.70
2022-08-09T14:39:46.212Z,43.70
2022-08-09T14:42:30.185Z,43.80
2022-08-09T14:46:40.044Z,43.90
2022-08-09T14:47:58.070Z,44.00
2022-08-09T14:50:27.757Z,44.00
2022-08-09T14:52:55.104Z,44.50
2022-08-09T14:55:22.167Z,44.40
2022-08-09T14:57:49.709Z,44.30
2022-08-09T15:00:20.986Z,44.40
2022-08-09T15:02:51.857Z,44.60
2022-08-09T15:05:20.018Z,44.80
2022-08-09T15:07:56.687Z,45.20
2022-08-09T15:10:26.339Z,45.30
2022-08-09T15:12:54.735Z,45.50
2022-08-09T15:15:22.166Z,45.70
2022-08-09T15:17:52.331Z,46.00
2022-08-09T15:21:58.346Z,46.10
2022-08-09T15:24:00.955Z,46.20
2022-08-09T15:25:58.559Z,46.30
2022-08-09T15:28:27.701Z,46.50
2022-08-09T15:31:14.570Z,46.80
2022-08-09T15:34:15.534Z,46.80
2022-08-09T15:36:31.209Z,47.30
2022-08-09T15:39:00.147Z,47.70
2022-08-09T15:41:31.720Z,47.70
2022-08-09T15:44:01.727Z,47.70
2022-08-09T15:46:33.028Z,47.90
2022-08-09T15:49:21.832Z,47.70
2022-08-09T15:52:04.905Z,47.50
2022-08-09T15:54:44.800Z,47.80
2022-08-09T15:57:34.112Z,48.00
2022-08-09T16:00:13.868Z,48.50
2022-08-09T16:02:48.230Z,48.50
2022-08-09T16:05:23.509Z,48.30
2022-08-09T16:07:51.280Z,48.40
2022-08-09T16:10:55.158Z,48.30
2022-08-09T16:13:20.865Z,48.30
2022-08-09T16:16:10.399Z,48.40
2022-08-09T16:18:45.181Z,48.40
2022-08-09T16:21:17.708Z,48.70
2022-08-09T16:24:01.633Z,48.90
2022-08-09T16:26:34.484Z,48.60
2022-08-09T16:29:11.713Z,48.80
2022-08-09T16:32:17.965Z,48.60
2022-08-09T16:34:29.140Z,48.50
2022-08-09T16:36:56.787Z,48.80
2022-08-09T16:39:25.689Z,49.00
2022-08-09T16:42:03.685Z,49.40
2022-08-09T16:44:32.662Z,49.30
2022-08-09T16:47:03.940Z,49.40
2022-08-09T16:50:31.352Z,49.40
2022-08-09T16:52:19.150Z,49.80
2022-08-09T16:54:46.287Z,50.00
2022-08-09T16:57:16.398Z,50.00
2022-08-09T16:59:44.099Z,50.00
2022-08-09T17:02:17.977Z,49.70
2022-08-09T17:04:50.656Z,49.90
2022-08-09T17:08:46.847Z,49.80
2022-08-09T17:10:09.434Z,49.90
2022-08-09T17:12:38.300Z,50.20
2022-08-09T17:15:30.769Z,50.30
2022-08-09T17:18:00.741Z,50.50
2022-08-09T17:20:35.749Z,50.40
2022-08-09T17:23:06.224Z,50.50
2022-08-09T17:25:37.620Z,50.60
2022-08-09T17:28:07.122Z,50.60
2022-08-09T17:30:34.970Z,50.80
2022-08-09T17:33:05.738Z,50.80
2022-08-09T17:35:50.242Z,50.90
2022-08-09T17:38:32.315Z,50.70
2022-08-09T17:41:04.418Z,50.80
2022-08-09T17:43:35.467Z,50.80
2022-08-09T17:46:08.722Z,50.80
2022-08-09T17:48:40.255Z,51.10
2022-08-09T17:51:18.821Z,51.20
2022-08-09T17:53:53.601Z,51.60
2022-08-09T17:56:28.840Z,51.90
2022-08-09T17:58:58.734Z,51.80
2022-08-09T18:01:58.055Z,52.00
2022-08-09T18:04:13.877Z,52.30
2022-08-09T18:06:43.090Z,52.10
2022-08-09T18:09:21.280Z,52.50
2022-08-09T18:12:14.625Z,52.70
2022-08-09T18:14:37.658Z,52.90
2022-08-09T18:17:18.830Z,53.20
2022-08-09T18:20:54.198Z,53.20
2022-08-09T18:22:54.110Z,53.60
2022-08-09T18:25:21.358Z,53.90
2022-08-09T18:28:21.568Z,53.90
2022-08-09T18:30:56.313Z,53.80
2022-08-09T18:33:23.941Z,53.90
2022-08-09T18:36:00.198Z,54.00
2022-08-09T18:38:28.368Z,54.10
2022-08-09T18:40:56.225Z,54.00
2022-08-09T18:43:25.021Z,53.90
2022-08-09T18:46:47.501Z,54.00
2022-08-09T18:48:42.200Z,53.90
2022-08-09T18:51:10.003Z,54.00
2022-08-09T18:53:56.941Z,53.80
2022-08-09T18:56:28.055Z,53.80
2022-08-09T18:59:01.203Z,53.80
2022-08-09T19:01:28.773Z,54.00
2022-08-09T19:04:10.947Z,54.00
2022-08-09T19:06:39.034Z,54.30
2022-08-09T19:09:33.995Z,54.30
2022-08-09T19:12:07.603Z,54.30
2022-08-09T19:14:35.032Z,54.30
2022-08-09T19:17:03.605Z,54.80
2022-08-09T19:19:41.336Z,54.70
2022-08-09T19:22:09.043Z,54.70
2022-08-09T19:25:07.429Z,54.60
2022-08-09T19:27:25.892Z,54.70
2022-08-09T19:30:22.962Z,54.60
2022-08-09T19:32:44.273Z,54.50
2022-08-09T19:35:11.415Z,54.60
2022-08-09T19:37:52.790Z,54.60
2022-08-09T19:40:22.043Z,54.70
2022-08-09T19:42:49.695Z,54.80
2022-08-09T19:45:17.479Z,55.00
2022-08-09T19:47:45.652Z,55.00
2022-08-09T19:50:51.284Z,55.40
2022-08-09T19:53:02.416Z,55.60
2022-08-09T19:56:02.106Z,55.90
2022-08-09T19:58:30.219Z,56.20
2022-08-09T20:00:58.613Z,56.70
2022-08-09T20:04:17.044Z,56.90
2022-08-09T20:06:23.726Z,57.30
2022-08-09T20:08:59.572Z,57.60
2022-08-09T20:11:33.754Z,58.10
2022-08-09T20:14:13.090Z,58.30
2022-08-09T20:16:48.981Z,58.50
2022-08-09T20:19:47.669Z,58.70
2022-08-09T20:22:08.967Z,59.00
2022-08-09T20:24:37.433Z,59.20
2022-08-09T20:27:11.669Z,59.20
2022-08-09T20:29:41.153Z,59.60
2022-08-09T20:32:30.615Z,59.60
2022-08-09T20:34:58.263Z,59.80
2022-08-09T20:37:25.827Z,59.80
2022-08-09T20:40:19.079Z,60.00
2022-08-09T20:43:00.283Z,60.20
2022-08-09T20:45:59.756Z,60.50
2022-08-09T20:48:29.096Z,60.50
2022-08-09T20:50:58.745Z,60.90
2022-08-09T20:53:36.178Z,61.20
2022-08-09T20:56:19.905Z,61.30
2022-08-09T20:58:54.579Z,61.80
2022-08-09T21:01:35.267Z,61.80
2022-08-09T21:05:51.660Z,62.20
2022-08-09T21:07:11.918Z,62.50
2022-08-09T21:09:56.900Z,62.80
2022-08-09T21:15:23.788Z,64.10
2022-08-09T21:18:23.094Z,63.50
2022-08-09T21:20:54.130Z,63.60
2022-08-09T21:23:22.502Z,63.80
2022-08-09T21:26:03.623Z,64.20
2022-08-09T21:28:36.184Z,64.30
2022-08-09T21:31:17.668Z,64.50
2022-08-09T21:33:53.016Z,64.80
2022-08-09T21:36:28.935Z,65.00
2022-08-09T21:38:59.659Z,65.30
2022-08-09T21:42:05.884Z,65.40
2022-08-09T21:44:32.808Z,65.40
2022-08-09T21:47:03.634Z,65.20
2022-08-09T21:49:39.780Z,65.20
2022-08-09T21:52:16.392Z,65.30
2022-08-09T21:55:03.001Z,65.20
2022-08-09T21:57:39.169Z,65.50
2022-08-09T22:00:33.462Z,65.00
2022-08-09T22:03:06.843Z,64.90
2022-08-09T22:05:42.352Z,65.10
2022-08-09T22:08:13.883Z,64.90
2022-08-09T22:11:50.291Z,64.80
2022-08-09T22:13:36.751Z,64.90
2022-08-09T22:16:07.620Z,64.80
2022-08-09T22:18:37.647Z,64.80
2022-08-09T22:21:09.556Z,64.40
2022-08-09T22:23:58.613Z,64.40
2022-08-09T22:26:35.165Z,64.00
2022-08-09T22:29:09.753Z,63.40
2022-08-09T22:31:50.421Z,63.30
2022-08-09T22:34:28.799Z,63.00
2022-08-09T22:36:59.060Z,62.70
2022-08-09T22:39:57.097Z,62.80
2022-08-09T22:42:21.978Z,62.70
2022-08-09T22:45:00.415Z,62.50
2022-08-09T22:48:11.233Z,62.40
2022-08-09T22:50:28.125Z,62.40
2022-08-09T22:52:57.880Z,62.30
2022-08-09T22:55:39.471Z,62.40
2022-08-09T22:58:20.226Z,62.30
2022-08-09T23:00:59.709Z,62.30
2022-08-09T23:04:02.535Z,62.20
2022-08-09T23:06:14.467Z,62.20
2022-08-09T23:08:57.018Z,62.20
2022-08-09T23:11:24.038Z,62.30
2022-08-09T23:13:54.984Z,62.50
2022-08-09T23:16:23.034Z,62.40
2022-08-09T23:18:50.248Z,62.30
2022-08-09T23:21:24.532Z,62.40
2022-08-09T23:24:05.496Z,62.30
2022-08-09T23:26:37.140Z,62.30
2022-08-09T23:29:11.674Z,62.80
2022-08-09T23:31:39.185Z,62.60
2022-08-09T23:34:06.642Z,62.70
2022-08-09T23:36:35.183Z,62.80
2022-08-09T23:39:04.716Z,62.90
2022-08-09T23:41:32.080Z,62.90
2022-08-09T23:44:00.378Z,62.80
2022-08-09T23:46:31.352Z,63.20
2022-08-09T23:48:59.391Z,63.10
2022-08-09T23:51:27.772Z,63.20
2022-08-09T23:54:02.497Z,63.10
2022-08-09T23:56:53.520Z,63.30
2022-08-09T23:59:21.606Z,63.60
